sensor_id;sensor_type;location;lat;lon;timestamp;pressure;altitude;pressure_sealevel;temperature;humidity
12178;BME280;6152;48.728;9.256;2023-02-16T00:03:41;98090.03;;;2.22;100.00
12178;BME280;6152;48.728;9.256;2023-02-16T00:06:07;98089.25;;;2.17;100.00
12178;BME280;6152;48.728;9.256;2023-02-16T00:08:39;98091.84;;;2.14;100.00
12178;BME280;6152;48.728;9.256;2023-02-16T00:11:18;98091.81;;;2.17;100.00
12178;BME280;6152;48.728;9.256;2023-02-16T00:14:06;98095.34;;;2.09;100.00
12178;BME280;6152;48.728;9.256;2023-02-16T00:16:33;98093.69;;;2.03;100.00
12178;BME280;6152;48.728;9.256;2023-02-16T00:18:59;98085.16;;;2.01;100.00
12178;BME280;6152;48.728;9.256;2023-02-16T00:21:25;98094.63;;;1.94;100.00
12178;BME280;6152;48.728;9.256;2023-02-16T00:23:52;98098.97;;;1.88;100.00
12178;BME280;6152;48.728;9.256;2023-02-16T00:26:21;98098.13;;;1.89;100.00
12178;BME280;6152;48.728;9.256;2023-02-16T00:28:53;98100.72;;;1.83;100.00
12178;BME280;6152;48.728;9.256;2023-02-16T00:31:22;98091.44;;;1.74;100.00
12178;BME280;6152;48.728;9.256;2023-02-16T00:33:51;98093.22;;;1.68;100.00
12178;BME280;6152;48.728;9.256;2023-02-16T00:36:18;98094.13;;;1.61;100.00
12178;BME280;6152;48.728;9.256;2023-02-16T00:38:44;98095.06;;;1.53;100.00
12178;BME280;6152;48.728;9.256;2023-02-16T00:41:16;98099.41;;;1.47;100.00
12178;BME280;6152;48.728;9.256;2023-02-16T00:44:01;98095.19;;;1.40;100.00
12178;BME280;6152;48.728;9.256;2023-02-16T00:46:27;98108.03;;;1.37;100.00
12178;BME280;6152;48.728;9.256;2023-02-16T00:48:54;98101.25;;;1.28;100.00
12178;BME280;6152;48.728;9.256;2023-02-16T00:51:20;98109.00;;;1.24;100.00
12178;BME280;6152;48.728;9.256;2023-02-16T00:53:46;98107.31;;;1.20;100.00
12178;BME280;6152;48.728;9.256;2023-02-16T00:56:17;98102.22;;;1.15;100.00
12178;BME280;6152;48.728;9.256;2023-02-16T00:58:45;98108.19;;;1.14;100.00
12178;BME280;6152;48.728;9.256;2023-02-16T01:01:15;98102.25;;;1.11;100.00
12178;BME280;6152;48.728;9.256;2023-02-16T01:03:43;98095.44;;;1.08;100.00
12178;BME280;6152;48.728;9.256;2023-02-16T01:06:10;98094.59;;;1.06;100.00
12178;BME280;6152;48.728;9.256;2023-02-16T01:09:13;98101.44;;;1.04;100.00
12178;BME280;6152;48.728;9.256;2023-02-16T01:11:58;98101.47;;;1.01;100.00
12178;BME280;6152;48.728;9.256;2023-02-16T01:14:25;98097.19;;;1.00;100.00
12178;BME280;6152;48.728;9.256;2023-02-16T01:16:51;98095.50;;;0.97;100.00
12178;BME280;6152;48.728;9.256;2023-02-16T01:19:17;98091.25;;;0.95;100.00
12178;BME280;6152;48.728;9.256;2023-02-16T01:21:44;98093.00;;;0.93;100.00
12178;BME280;6152;48.728;9.256;2023-02-16T01:24:10;98092.16;;;0.89;100.00
12178;BME280;6152;48.728;9.256;2023-02-16T01:26:41;98093.00;;;0.87;100.00
12178;BME280;6152;48.728;9.256;2023-02-16T01:29:17;98088.78;;;0.84;100.00
12178;BME280;6152;48.728;9.256;2023-02-16T01:31:44;98096.47;;;0.80;100.00
12178;BME280;6152;48.728;9.256;2023-02-16T01:34:11;98093.97;;;0.75;100.00
12178;BME280;6152;48.728;9.256;2023-02-16T01:36:40;98085.41;;;0.73;100.00
12178;BME280;6152;48.728;9.256;2023-02-16T01:39:10;98094.00;;;0.72;100.00
12178;BME280;6152;48.728;9.256;2023-02-16T01:42:03;98089.72;;;0.70;100.00
12178;BME280;6152;48.728;9.256;2023-02-16T01:44:42;98082.91;;;0.66;100.00
12178;BME280;6152;48.728;9.256;2023-02-16T01:49:54;98090.63;;;0.61;100.00
12178;BME280;6152;48.728;9.256;2023-02-16T01:52:36;98092.34;;;0.61;100.00
12178;BME280;6152;48.728;9.256;2023-02-16T01:55:23;98089.78;;;0.58;100.00
12178;BME280;6152;48.728;9.256;2023-02-16T02:03:23;98074.44;;;0.55;100.00
12178;BME280;6152;48.728;9.256;2023-02-16T02:06:14;98076.16;;;0.52;100.00
12178;BME280;6152;48.728;9.256;2023-02-16T02:08:53;98070.19;;;0.54;100.00
12178;BME280;6152;48.728;9.256;2023-02-16T02:11:30;98063.38;;;0.51;100.00
12178;BME280;6152;48.728;9.256;2023-02-16T02:14:31;98062.53;;;0.50;100.00
12178;BME280;6152;48.728;9.256;2023-02-16T02:17:02;98070.22;;;0.47;100.00
12178;BME280;6152;48.728;9.256;2023-02-16T02:19:30;98059.97;;;0.46;100.00
12178;BME280;6152;48.728;9.256;2023-02-16T02:22:23;98059.13;;;0.42;100.00
12178;BME280;6152;48.728;9.256;2023-02-16T02:28:25;98054.91;;;0.40;100.00
12178;BME280;6152;48.728;9.256;2023-02-16T02:33:32;98050.59;;;0.46;100.00
12178;BME280;6152;48.728;9.256;2023-02-16T02:36:25;98053.16;;;0.46;100.00
12178;BME280;6152;48.728;9.256;2023-02-16T02:41:41;98051.44;;;0.45;100.00
12178;BME280;6152;48.728;9.256;2023-02-16T02:44:39;98054.00;;;0.45;100.00
12178;BME280;6152;48.728;9.256;2023-02-16T02:47:07;98052.31;;;0.41;100.00
12178;BME280;6152;48.728;9.256;2023-02-16T02:49:33;98048.94;;;0.36;100.00
12178;BME280;6152;48.728;9.256;2023-02-16T02:51:59;98050.69;;;0.34;100.00
12178;BME280;6152;48.728;9.256;2023-02-16T02:54:30;98060.06;;;0.29;100.00
12178;BME280;6152;48.728;9.256;2023-02-16T03:00:25;98047.31;;;0.23;100.00
12178;BME280;6152;48.728;9.256;2023-02-16T03:03:23;98054.09;;;0.24;100.00
12178;BME280;6152;48.728;9.256;2023-02-16T03:08:28;98049.00;;;0.23;100.00
12178;BME280;6152;48.728;9.256;2023-02-16T03:13:57;98050.75;;;0.15;100.00
12178;BME280;6152;48.728;9.256;2023-02-16T03:17:09;98050.78;;;0.09;100.00
12178;BME280;6152;48.728;9.256;2023-02-16T03:19:18;98047.38;;;0.04;100.00
12178;BME280;6152;48.728;9.256;2023-02-16T03:22:03;98047.41;;;-0.01;100.00
12178;BME280;6152;48.728;9.256;2023-02-16T03:24:48;98049.13;;;-0.06;100.00
12178;BME280;6152;48.728;9.256;2023-02-16T03:27:36;98049.16;;;-0.09;100.00
12178;BME280;6152;48.728;9.256;2023-02-16T03:30:23;98046.56;;;-0.06;100.00
12178;BME280;6152;48.728;9.256;2023-02-16T03:32:51;98045.75;;;-0.11;100.00
12178;BME280;6152;48.728;9.256;2023-02-16T03:35:19;98050.88;;;-0.14;100.00
12178;BME280;6152;48.728;9.256;2023-02-16T03:37:46;98044.06;;;-0.15;100.00
12178;BME280;6152;48.728;9.256;2023-02-16T03:40:14;98052.56;;;-0.13;100.00
12178;BME280;6152;48.728;9.256;2023-02-16T03:42:54;98047.47;;;-0.16;100.00
12178;BME280;6152;48.728;9.256;2023-02-16T03:45:21;98047.50;;;-0.18;100.00
12178;BME280;6152;48.728;9.256;2023-02-16T03:47:48;98051.72;;;-0.17;100.00
12178;BME280;6152;48.728;9.256;2023-02-16T03:50:14;98049.19;;;-0.18;100.00
12178;BME280;6152;48.728;9.256;2023-02-16T03:52:40;98049.19;;;-0.18;100.00
12178;BME280;6152;48.728;9.256;2023-02-16T03:55:07;98055.97;;;-0.17;100.00
12178;BME280;6152;48.728;9.256;2023-02-16T03:57:33;98056.00;;;-0.20;100.00
12178;BME280;6152;48.728;9.256;2023-02-16T03:59:59;98074.78;;;-0.21;100.00
12178;BME280;6152;48.728;9.256;2023-02-16T04:02:27;98059.44;;;-0.24;100.00
12178;BME280;6152;48.728;9.256;2023-02-16T04:04:53;98063.69;;;-0.19;100.00
12178;BME280;6152;48.728;9.256;2023-02-16T04:07:19;98073.06;;;-0.18;100.00
12178;BME280;6152;48.728;9.256;2023-02-16T04:09:45;98067.06;;;-0.17;100.00
12178;BME280;6152;48.728;9.256;2023-02-16T04:12:12;98065.38;;;-0.16;100.00
12178;BME280;6152;48.728;9.256;2023-02-16T04:14:57;98069.63;;;-0.15;100.00
12178;BME280;6152;48.728;9.256;2023-02-16T04:17:23;98072.19;;;-0.15;100.00
12178;BME280;6152;48.728;9.256;2023-02-16T04:19:49;98076.47;;;-0.16;100.00
12178;BME280;6152;48.728;9.256;2023-02-16T04:22:15;98073.03;;;-0.16;100.00
12178;BME280;6152;48.728;9.256;2023-02-16T04:24:42;98068.78;;;-0.19;100.00
12178;BME280;6152;48.728;9.256;2023-02-16T04:27:08;98071.31;;;-0.17;100.00
12178;BME280;6152;48.728;9.256;2023-02-16T04:29:34;98079.03;;;-0.20;100.00
12178;BME280;6152;48.728;9.256;2023-02-16T04:32:00;98076.47;;;-0.22;100.00
12178;BME280;6152;48.728;9.256;2023-02-16T04:34:26;98079.88;;;-0.23;100.00
12178;BME280;6152;48.728;9.256;2023-02-16T04:36:52;98083.31;;;-0.25;100.00
12178;BME280;6152;48.728;9.256;2023-02-16T04:39:19;98085.88;;;-0.28;100.00
12178;BME280;6152;48.728;9.256;2023-02-16T04:41:45;98075.63;;;-0.30;100.00
12178;BME280;6152;48.728;9.256;2023-02-16T04:44:11;98085.03;;;-0.33;100.00
12178;BME280;6152;48.728;9.256;2023-02-16T04:46:37;98083.31;;;-0.34;100.00
12178;BME280;6152;48.728;9.256;2023-02-16T04:49:03;98082.47;;;-0.39;100.00
12178;BME280;6152;48.728;9.256;2023-02-16T04:51:30;98085.06;;;-0.42;100.00
12178;BME280;6152;48.728;9.256;2023-02-16T04:53:56;98083.38;;;-0.45;100.00
12178;BME280;6152;48.728;9.256;2023-02-16T04:56:22;98080.78;;;-0.48;100.00
12178;BME280;6152;48.728;9.256;2023-02-16T04:58:48;98083.34;;;-0.49;100.00
12178;BME280;6152;48.728;9.256;2023-02-16T05:01:22;98079.94;;;-0.53;100.00
12178;BME280;6152;48.728;9.256;2023-02-16T05:03:49;98081.66;;;-0.54;100.00
12178;BME280;6152;48.728;9.256;2023-02-16T05:06:15;98069.72;;;-0.58;100.00
12178;BME280;6152;48.728;9.256;2023-02-16T05:08:41;98072.31;;;-0.62;100.00
12178;BME280;6152;48.728;9.256;2023-02-16T05:11:08;98077.41;;;-0.67;100.00
12178;BME280;6152;48.728;9.256;2023-02-16T05:13:54;98075.72;;;-0.71;100.00
12178;BME280;6152;48.728;9.256;2023-02-16T05:16:39;98070.59;;;-0.74;100.00
12178;BME280;6152;48.728;9.256;2023-02-16T05:19:05;98078.28;;;-0.77;100.00
12178;BME280;6152;48.728;9.256;2023-02-16T05:21:31;98083.38;;;-0.81;100.00
12178;BME280;6152;48.728;9.256;2023-02-16T05:23:58;98079.13;;;-0.82;100.00
12178;BME280;6152;48.728;9.256;2023-02-16T05:26:25;98078.25;;;-0.86;100.00
12178;BME280;6152;48.728;9.256;2023-02-16T05:28:51;98085.94;;;-0.87;100.00
12178;BME280;6152;48.728;9.256;2023-02-16T05:31:17;98087.66;;;-0.86;100.00
12178;BME280;6152;48.728;9.256;2023-02-16T05:33:43;98090.19;;;-0.88;100.00
12178;BME280;6152;48.728;9.256;2023-02-16T05:36:10;98091.91;;;-0.88;100.00
12178;BME280;6152;48.728;9.256;2023-02-16T05:38:36;98097.03;;;-0.90;100.00
12178;BME280;6152;48.728;9.256;2023-02-16T05:41:02;98099.56;;;-0.90;100.00
12178;BME280;6152;48.728;9.256;2023-02-16T05:43:28;98095.31;;;-0.91;100.00
12178;BME280;6152;48.728;9.256;2023-02-16T05:45:54;98092.75;;;-0.91;100.00
12178;BME280;6152;48.728;9.256;2023-02-16T05:48:20;98097.84;;;-0.92;100.00
12178;BME280;6152;48.728;9.256;2023-02-16T05:50:46;98099.56;;;-0.94;100.00
12178;BME280;6152;48.728;9.256;2023-02-16T05:53:13;98097.00;;;-0.99;100.00
12178;BME280;6152;48.728;9.256;2023-02-16T05:55:39;98100.44;;;-1.00;100.00
12178;BME280;6152;48.728;9.256;2023-02-16T05:58:05;98106.38;;;-1.03;100.00
12178;BME280;6152;48.728;9.256;2023-02-16T06:00:31;98110.63;;;-1.05;100.00
12178;BME280;6152;48.728;9.256;2023-02-16T06:02:58;98100.41;;;-1.06;100.00
12178;BME280;6152;48.728;9.256;2023-02-16T06:05:25;98107.22;;;-1.07;100.00
12178;BME280;6152;48.728;9.256;2023-02-16T06:07:51;98122.53;;;-1.08;100.00
12178;BME280;6152;48.728;9.256;2023-02-16T06:10:18;98114.00;;;-1.10;100.00
12178;BME280;6152;48.728;9.256;2023-02-16T06:12:44;98122.53;;;-1.13;100.00
12178;BME280;6152;48.728;9.256;2023-02-16T06:15:11;98126.78;;;-1.16;100.00
12178;BME280;6152;48.728;9.256;2023-02-16T06:17:37;98126.78;;;-1.16;100.00
12178;BME280;6152;48.728;9.256;2023-02-16T06:20:04;98126.78;;;-1.16;100.00
12178;BME280;6152;48.728;9.256;2023-02-16T06:22:30;98124.25;;;-1.21;100.00
12178;BME280;6152;48.728;9.256;2023-02-16T06:24:56;98131.03;;;-1.23;100.00
12178;BME280;6152;48.728;9.256;2023-02-16T06:27:23;98133.56;;;-1.23;100.00
12178;BME280;6152;48.728;9.256;2023-02-16T06:29:49;98141.25;;;-1.21;100.00
12178;BME280;6152;48.728;9.256;2023-02-16T06:32:15;98143.81;;;-1.24;100.00
12178;BME280;6152;48.728;9.256;2023-02-16T06:34:41;98142.94;;;-1.23;100.00
12178;BME280;6152;48.728;9.256;2023-02-16T06:37:07;98147.19;;;-1.22;100.00
12178;BME280;6152;48.728;9.256;2023-02-16T06:39:34;98149.75;;;-1.22;100.00
12178;BME280;6152;48.728;9.256;2023-02-16T06:42:00;98148.06;;;-1.22;100.00
12178;BME280;6152;48.728;9.256;2023-02-16T06:44:26;98146.34;;;-1.24;100.00
12178;BME280;6152;48.728;9.256;2023-02-16T06:46:52;98141.25;;;-1.24;100.00
12178;BME280;6152;48.728;9.256;2023-02-16T06:49:19;98137.81;;;-1.23;100.00
12178;BME280;6152;48.728;9.256;2023-02-16T06:51:49;98142.09;;;-1.22;100.00
12178;BME280;6152;48.728;9.256;2023-02-16T06:54:15;98140.38;;;-1.23;100.00
12178;BME280;6152;48.728;9.256;2023-02-16T06:56:41;98146.34;;;-1.20;100.00
12178;BME280;6152;48.728;9.256;2023-02-16T06:59:09;98146.38;;;-1.15;100.00
12178;BME280;6152;48.728;9.256;2023-02-16T07:01:35;98151.47;;;-1.14;100.00
12178;BME280;6152;48.728;9.256;2023-02-16T07:04:01;98144.66;;;-1.13;100.00
12178;BME280;6152;48.728;9.256;2023-02-16T07:06:28;98148.09;;;-1.05;100.00
12178;BME280;6152;48.728;9.256;2023-02-16T07:08:54;98146.38;;;-1.06;100.00
12178;BME280;6152;48.728;9.256;2023-02-16T07:11:21;98153.19;;;-1.02;100.00
12178;BME280;6152;48.728;9.256;2023-02-16T07:13:47;98152.34;;;-0.96;100.00
12178;BME280;6152;48.728;9.256;2023-02-16T07:16:14;98145.53;;;-0.88;100.00
12178;BME280;6152;48.728;9.256;2023-02-16T07:18:40;98147.25;;;-0.78;100.00
12178;BME280;6152;48.728;9.256;2023-02-16T07:21:06;98154.94;;;-0.69;100.00
12178;BME280;6152;48.728;9.256;2023-02-16T07:23:33;98146.41;;;-0.61;100.00
12178;BME280;6152;48.728;9.256;2023-02-16T07:25:59;98147.28;;;-0.56;100.00
12178;BME280;6152;48.728;9.256;2023-02-16T07:28:25;98152.38;;;-0.48;100.00
12178;BME280;6152;48.728;9.256;2023-02-16T07:30:51;98161.75;;;-0.42;100.00
12178;BME280;6152;48.728;9.256;2023-02-16T07:33:18;98150.66;;;-0.37;100.00
12178;BME280;6152;48.728;9.256;2023-02-16T07:35:45;98154.94;;;-0.31;100.00
12178;BME280;6152;48.728;9.256;2023-02-16T07:38:11;98158.31;;;-0.26;100.00
12178;BME280;6152;48.728;9.256;2023-02-16T07:40:38;98162.56;;;-0.16;100.00
12178;BME280;6152;48.728;9.256;2023-02-16T07:43:05;98158.28;;;-0.08;100.00
12178;BME280;6152;48.728;9.256;2023-02-16T07:45:31;98160.84;;;0.03;100.00
12178;BME280;6152;48.728;9.256;2023-02-16T07:48:01;98159.06;;;0.18;100.00
12178;BME280;6152;48.728;9.256;2023-02-16T07:50:27;98165.03;;;0.23;100.00
12178;BME280;6152;48.728;9.256;2023-02-16T07:52:53;98164.19;;;0.27;100.00
12178;BME280;6152;48.728;9.256;2023-02-16T07:55:19;98164.16;;;0.38;100.00
12178;BME280;6152;48.728;9.256;2023-02-16T07:57:46;98161.56;;;0.44;100.00
12178;BME280;6152;48.728;9.256;2023-02-16T08:00:29;98175.16;;;0.57;100.00
12178;BME280;6152;48.728;9.256;2023-02-16T08:02:55;98176.81;;;0.67;100.00
12178;BME280;6152;48.728;9.256;2023-02-16T08:05:21;98175.88;;;0.80;100.00
12178;BME280;6152;48.728;9.256;2023-02-16T08:07:47;98184.38;;;0.92;100.00
12178;BME280;6152;48.728;9.256;2023-02-16T08:10:14;98185.22;;;0.96;100.00
12178;BME280;6152;48.728;9.256;2023-02-16T08:12:41;98185.16;;;1.07;100.00
12178;BME280;6152;48.728;9.256;2023-02-16T08:15:08;98186.75;;;1.21;100.00
12178;BME280;6152;48.728;9.256;2023-02-16T08:17:35;98189.28;;;1.30;100.00
12178;BME280;6152;48.728;9.256;2023-02-16T08:20:01;98190.88;;;1.46;100.00
12178;BME280;6152;48.728;9.256;2023-02-16T08:22:27;98185.66;;;1.59;100.00
12178;BME280;6152;48.728;9.256;2023-02-16T08:24:54;98186.41;;;1.71;100.00
12178;BME280;6152;48.728;9.256;2023-02-16T08:27:20;98191.41;;;1.85;100.00
12178;BME280;6152;48.728;9.256;2023-02-16T08:29:46;98185.25;;;2.01;100.00
12178;BME280;6152;48.728;9.256;2023-02-16T08:32:13;98184.19;;;2.22;100.00
12178;BME280;6152;48.728;9.256;2023-02-16T08:34:39;98184.88;;;2.39;100.00
12178;BME280;6152;48.728;9.256;2023-02-16T08:37:06;98180.28;;;2.64;100.00
12178;BME280;6152;48.728;9.256;2023-02-16T08:39:32;98183.50;;;2.81;100.00
12178;BME280;6152;48.728;9.256;2023-02-16T08:42:00;98188.31;;;3.05;100.00
12178;BME280;6152;48.728;9.256;2023-02-16T08:44:27;98184.69;;;3.20;100.00
12178;BME280;6152;48.728;9.256;2023-02-16T08:46:55;98180.03;;;3.44;100.00
12178;BME280;6152;48.728;9.256;2023-02-16T08:49:24;98177.03;;;3.72;100.00
12178;BME280;6152;48.728;9.256;2023-02-16T08:51:53;98180.06;;;3.95;100.00
12178;BME280;6152;48.728;9.256;2023-02-16T08:54:23;98177.97;;;4.15;100.00
12178;BME280;6152;48.728;9.256;2023-02-16T08:56:51;98175.88;;;4.35;100.00
12178;BME280;6152;48.728;9.256;2023-02-16T08:59:19;98184.13;;;4.52;100.00
12178;BME280;6152;48.728;9.256;2023-02-16T09:01:46;98181.13;;;4.74;100.00
12178;BME280;6152;48.728;9.256;2023-02-16T09:04:13;98179.91;;;4.93;100.00
12178;BME280;6152;48.728;9.256;2023-02-16T09:06:42;98181.13;;;5.15;100.00
12178;BME280;6152;48.728;9.256;2023-02-16T09:09:10;98187.84;;;5.21;100.00
12178;BME280;6152;48.728;9.256;2023-02-16T09:11:37;98184.03;;;5.38;100.00
12178;BME280;6152;48.728;9.256;2023-02-16T09:14:04;98184.53;;;5.54;100.00
12178;BME280;6152;48.728;9.256;2023-02-16T09:16:31;98174.66;;;5.70;100.00
12178;BME280;6152;48.728;9.256;2023-02-16T09:19:00;98167.09;;;5.62;100.00
12178;BME280;6152;48.728;9.256;2023-02-16T09:21:28;98168.31;;;5.83;100.00
12178;BME280;6152;48.728;9.256;2023-02-16T09:23:58;98167.69;;;6.08;100.00
12178;BME280;6152;48.728;9.256;2023-02-16T09:26:26;98157.41;;;6.39;100.00
12178;BME280;6152;48.728;9.256;2023-02-16T09:28:55;98158.06;;;6.77;100.00
12178;BME280;6152;48.728;9.256;2023-02-16T09:31:27;98158.50;;;7.20;100.00
12178;BME280;6152;48.728;9.256;2023-02-16T09:34:06;98165.91;;;7.58;100.00
12178;BME280;6152;48.728;9.256;2023-02-16T09:36:33;98163.41;;;8.08;100.00
12178;BME280;6152;48.728;9.256;2023-02-16T09:38:59;98160.63;;;8.63;100.00
12178;BME280;6152;48.728;9.256;2023-02-16T09:44:57;98162.41;;;9.53;92.46
12178;BME280;6152;48.728;9.256;2023-02-16T09:47:19;98173.41;;;10.23;85.75
12178;BME280;6152;48.728;9.256;2023-02-16T09:49:46;98160.47;;;11.18;78.36
12178;BME280;6152;48.728;9.256;2023-02-16T09:52:33;98162.22;;;12.92;64.00
12178;BME280;6152;48.728;9.256;2023-02-16T09:55:06;98147.88;;;15.64;53.08
12178;BME280;6152;48.728;9.256;2023-02-16T10:00:42;98133.03;;;19.16;39.53
12178;BME280;6152;48.728;9.256;2023-02-16T10:05:56;98119.69;;;22.25;33.04
12178;BME280;6152;48.728;9.256;2023-02-16T10:08:50;98117.94;;;21.17;33.78
12178;BME280;6152;48.728;9.256;2023-02-16T10:11:32;98122.13;;;21.69;32.02
12178;BME280;6152;48.728;9.256;2023-02-16T10:22:54;98108.66;;;25.41;26.13
12178;BME280;6152;48.728;9.256;2023-02-16T10:25:33;98104.38;;;26.39;25.98
12178;BME280;6152;48.728;9.256;2023-02-16T10:30:37;98106.38;;;23.37;28.67
12178;BME280;6152;48.728;9.256;2023-02-16T10:36:22;98102.72;;;23.38;28.19
12178;BME280;6152;48.728;9.256;2023-02-16T10:45:19;98079.66;;;27.86;24.02
12178;BME280;6152;48.728;9.256;2023-02-16T10:47:47;98080.16;;;29.45;23.00
12178;BME280;6152;48.728;9.256;2023-02-16T10:52:46;98073.59;;;31.44;20.13
12178;BME280;6152;48.728;9.256;2023-02-16T10:55:12;98054.53;;;31.45;19.71
12178;BME280;6152;48.728;9.256;2023-02-16T10:57:39;98054.53;;;32.78;19.33
12178;BME280;6152;48.728;9.256;2023-02-16T11:00:10;98060.00;;;33.36;18.41
12178;BME280;6152;48.728;9.256;2023-02-16T11:02:41;98052.81;;;34.30;17.83
12178;BME280;6152;48.728;9.256;2023-02-16T11:05:33;98050.06;;;31.66;18.15
12178;BME280;6152;48.728;9.256;2023-02-16T11:08:00;98046.22;;;33.50;18.33
12178;BME280;6152;48.728;9.256;2023-02-16T11:10:49;98038.75;;;32.82;17.66
12178;BME280;6152;48.728;9.256;2023-02-16T11:13:34;98039.63;;;32.63;18.07
12178;BME280;6152;48.728;9.256;2023-02-16T11:16:10;98034.63;;;33.43;18.50
12178;BME280;6152;48.728;9.256;2023-02-16T11:18:42;98036.44;;;32.92;17.68
12178;BME280;6152;48.728;9.256;2023-02-16T11:21:11;98028.16;;;32.87;17.42
12178;BME280;6152;48.728;9.256;2023-02-16T11:23:42;98028.94;;;33.00;16.82
12178;BME280;6152;48.728;9.256;2023-02-16T11:31:13;98022.81;;;33.76;16.03
12178;BME280;6152;48.728;9.256;2023-02-16T11:36:38;98011.22;;;34.00;14.91
12178;BME280;6152;48.728;9.256;2023-02-16T11:39:16;98012.03;;;32.34;16.00
12178;BME280;6152;48.728;9.256;2023-02-16T11:44:41;98003.66;;;31.03;17.24
12178;BME280;6152;48.728;9.256;2023-02-16T11:47:30;97994.91;;;30.04;17.49
12178;BME280;6152;48.728;9.256;2023-02-16T11:50:19;98009.41;;;29.17;18.40
12178;BME280;6152;48.728;9.256;2023-02-16T11:52:48;97993.69;;;29.86;18.04
12178;BME280;6152;48.728;9.256;2023-02-16T11:55:29;97993.41;;;28.21;19.18
12178;BME280;6152;48.728;9.256;2023-02-16T11:58:18;97993.66;;;29.43;18.92
12178;BME280;6152;48.728;9.256;2023-02-16T12:01:24;97981.28;;;30.34;17.80
12178;BME280;6152;48.728;9.256;2023-02-16T12:04:06;97981.81;;;28.43;19.00
12178;BME280;6152;48.728;9.256;2023-02-16T12:15:20;97968.97;;;31.34;17.11
12178;BME280;6152;48.728;9.256;2023-02-16T12:23:13;97950.47;;;28.15;20.12
12178;BME280;6152;48.728;9.256;2023-02-16T12:31:17;97948.31;;;29.13;19.46
12178;BME280;6152;48.728;9.256;2023-02-16T12:47:07;97930.44;;;28.84;19.05
12178;BME280;6152;48.728;9.256;2023-02-16T12:54:54;97917.53;;;28.43;19.50
12178;BME280;6152;48.728;9.256;2023-02-16T12:57:25;97910.41;;;28.21;20.35
12178;BME280;6152;48.728;9.256;2023-02-16T13:00:01;97902.44;;;27.38;20.66
12178;BME280;6152;48.728;9.256;2023-02-16T13:02:37;97905.59;;;25.62;23.19
12178;BME280;6152;48.728;9.256;2023-02-16T13:05:23;97895.34;;;27.00;21.65
12178;BME280;6152;48.728;9.256;2023-02-16T13:08:01;97888.25;;;26.45;22.22
12178;BME280;6152;48.728;9.256;2023-02-16T13:11:02;97882.94;;;25.74;23.09
12178;BME280;6152;48.728;9.256;2023-02-16T13:13:33;97884.75;;;25.25;23.21
12178;BME280;6152;48.728;9.256;2023-02-16T13:16:17;97889.63;;;24.04;24.62
12178;BME280;6152;48.728;9.256;2023-02-16T13:18:49;97889.41;;;22.38;26.75
12178;BME280;6152;48.728;9.256;2023-02-16T13:21:32;97884.38;;;21.04;28.36
12178;BME280;6152;48.728;9.256;2023-02-16T13:27:11;97889.81;;;19.21;32.17
12178;BME280;6152;48.728;9.256;2023-02-16T13:41:31;97892.72;;;17.30;35.21
12178;BME280;6152;48.728;9.256;2023-02-16T13:44:18;97893.69;;;17.40;35.74
12178;BME280;6152;48.728;9.256;2023-02-16T13:46:50;97898.78;;;17.31;35.96
12178;BME280;6152;48.728;9.256;2023-02-16T13:52:00;97896.88;;;17.56;36.48
12178;BME280;6152;48.728;9.256;2023-02-16T13:54:30;97897.97;;;17.30;35.88
12178;BME280;6152;48.728;9.256;2023-02-16T13:57:00;97898.41;;;17.13;36.16
12178;BME280;6152;48.728;9.256;2023-02-16T14:01:59;97909.19;;;16.74;36.62
12178;BME280;6152;48.728;9.256;2023-02-16T14:09:46;97907.44;;;16.00;37.38
12178;BME280;6152;48.728;9.256;2023-02-16T14:12:24;97903.59;;;15.80;37.68
12178;BME280;6152;48.728;9.256;2023-02-16T14:14:58;97908.59;;;15.45;38.74
12178;BME280;6152;48.728;9.256;2023-02-16T14:17:32;97901.06;;;15.53;38.40
12178;BME280;6152;48.728;9.256;2023-02-16T14:22:47;97911.97;;;15.08;39.43
12178;BME280;6152;48.728;9.256;2023-02-16T14:27:53;97922.47;;;15.08;39.84
12178;BME280;6152;48.728;9.256;2023-02-16T14:35:36;97911.41;;;15.30;40.07
12178;BME280;6152;48.728;9.256;2023-02-16T14:38:15;97916.22;;;15.23;40.17
12178;BME280;6152;48.728;9.256;2023-02-16T14:46:31;97925.91;;;14.96;41.22
12178;BME280;6152;48.728;9.256;2023-02-16T14:55:01;97935.88;;;14.50;42.84
12178;BME280;6152;48.728;9.256;2023-02-16T15:00:13;97939.88;;;14.41;43.85
12178;BME280;6152;48.728;9.256;2023-02-16T15:03:14;97943.91;;;14.33;43.72
12178;BME280;6152;48.728;9.256;2023-02-16T15:05:41;97942.91;;;14.35;43.78
12178;BME280;6152;48.728;9.256;2023-02-16T15:08:15;97928.41;;;14.44;43.87
12178;BME280;6152;48.728;9.256;2023-02-16T15:10:43;97931.88;;;14.44;43.63
12178;BME280;6152;48.728;9.256;2023-02-16T15:13:22;97940.53;;;14.45;44.23
12178;BME280;6152;48.728;9.256;2023-02-16T15:15:53;97937.47;;;14.38;44.54
12178;BME280;6152;48.728;9.256;2023-02-16T15:18:27;97932.59;;;14.32;44.21
12178;BME280;6152;48.728;9.256;2023-02-16T15:20:56;97936.13;;;14.31;44.80
12178;BME280;6152;48.728;9.256;2023-02-16T15:23:28;97937.63;;;14.21;44.65
12178;BME280;6152;48.728;9.256;2023-02-16T15:25:58;97940.66;;;14.15;45.42
12178;BME280;6152;48.728;9.256;2023-02-16T15:28:37;97928.03;;;14.07;46.11
12178;BME280;6152;48.728;9.256;2023-02-16T15:31:15;97924.66;;;14.05;46.03
12178;BME280;6152;48.728;9.256;2023-02-16T15:33:54;97912.78;;;14.00;45.89
12178;BME280;6152;48.728;9.256;2023-02-16T15:36:33;97913.28;;;13.92;46.21
12178;BME280;6152;48.728;9.256;2023-02-16T15:39:03;97914.59;;;13.85;46.48
12178;BME280;6152;48.728;9.256;2023-02-16T15:41:31;97915.78;;;13.80;46.37
12178;BME280;6152;48.728;9.256;2023-02-16T15:43:58;97909.16;;;13.74;47.20
12178;BME280;6152;48.728;9.256;2023-02-16T15:46:39;97906.81;;;13.70;47.05
12178;BME280;6152;48.728;9.256;2023-02-16T15:49:20;97903.63;;;13.64;47.15
12178;BME280;6152;48.728;9.256;2023-02-16T15:51:47;97900.38;;;13.61;47.99
12178;BME280;6152;48.728;9.256;2023-02-16T15:56:50;97904.34;;;13.38;45.97
12178;BME280;6152;48.728;9.256;2023-02-16T15:59:38;97906.84;;;13.26;45.35
12178;BME280;6152;48.728;9.256;2023-02-16T16:02:23;97914.38;;;13.16;45.56
12178;BME280;6152;48.728;9.256;2023-02-16T16:04:56;97910.19;;;12.98;45.52
12178;BME280;6152;48.728;9.256;2023-02-16T16:07:33;97908.28;;;12.86;45.89
12178;BME280;6152;48.728;9.256;2023-02-16T16:10:02;97906.00;;;12.80;45.92
12178;BME280;6152;48.728;9.256;2023-02-16T16:12:29;97916.22;;;12.69;46.39